sensor_id;sensor_type;location;lat;lon;timestamp;P1;durP1;ratioP1;P2;durP2;ratioP2
79526;SDS011;68974;47.754;-3.364;2023-04-06T00:01:21;5.30;;;3.40;;
79526;SDS011;68974;47.754;-3.364;2023-04-06T00:03:47;3.10;;;2.70;;
79526;SDS011;68974;47.754;-3.364;2023-04-06T00:06:12;4.57;;;2.60;;
79526;SDS011;68974;47.754;-3.364;2023-04-06T00:08:37;3.95;;;2.95;;
79526;SDS011;68974;47.754;-3.364;2023-04-06T00:11:03;3.97;;;2.63;;
79526;SDS011;68974;47.754;-3.364;2023-04-06T00:13:28;6.22;;;2.90;;
79526;SDS011;68974;47.754;-3.364;2023-04-06T00:15:54;4.38;;;3.00;;
79526;SDS011;68974;47.754;-3.364;2023-04-06T00:18:19;4.13;;;2.83;;
79526;SDS011;68974;47.754;-3.364;2023-04-06T00:20:45;5.15;;;3.05;;
79526;SDS011;68974;47.754;-3.364;2023-04-06T00:23:10;4.80;;;2.83;;
79526;SDS011;68974;47.754;-3.364;2023-04-06T00:25:36;4.28;;;3.33;;
79526;SDS011;68974;47.754;-3.364;2023-04-06T00:28:01;3.03;;;2.47;;
79526;SDS011;68974;47.754;-3.364;2023-04-06T00:30:28;3.67;;;3.13;;
79526;SDS011;68974;47.754;-3.364;2023-04-06T00:32:53;3.80;;;3.30;;
79526;SDS011;68974;47.754;-3.364;2023-04-06T00:35:18;6.00;;;3.17;;
79526;SDS011;68974;47.754;-3.364;2023-04-06T00:37:45;4.38;;;2.55;;
79526;SDS011;68974;47.754;-3.364;2023-04-06T00:40:11;7.68;;;3.15;;
79526;SDS011;68974;47.754;-3.364;2023-04-06T00:42:37;4.00;;;2.60;;
79526;SDS011;68974;47.754;-3.364;2023-04-06T00:45:02;3.55;;;2.60;;
79526;SDS011;68974;47.754;-3.364;2023-04-06T00:47:28;5.60;;;2.60;;
79526;SDS011;68974;47.754;-3.364;2023-04-06T00:49:54;4.05;;;2.42;;
79526;SDS011;68974;47.754;-3.364;2023-04-06T00:52:20;4.63;;;2.55;;
79526;SDS011;68974;47.754;-3.364;2023-04-06T00:54:45;3.47;;;2.22;;
79526;SDS011;68974;47.754;-3.364;2023-04-06T00:57:11;4.03;;;2.45;;
79526;SDS011;68974;47.754;-3.364;2023-04-06T00:59:38;4.35;;;2.40;;
79526;SDS011;68974;47.754;-3.364;2023-04-06T01:02:04;3.83;;;2.50;;
79526;SDS011;68974;47.754;-3.364;2023-04-06T01:04:29;4.43;;;2.00;;
79526;SDS011;68974;47.754;-3.364;2023-04-06T01:06:56;4.18;;;2.50;;
79526;SDS011;68974;47.754;-3.364;2023-04-06T01:09:21;3.63;;;2.50;;
79526;SDS011;68974;47.754;-3.364;2023-04-06T01:11:46;5.63;;;2.55;;
79526;SDS011;68974;47.754;-3.364;2023-04-06T01:14:12;4.15;;;2.45;;
79526;SDS011;68974;47.754;-3.364;2023-04-06T01:16:37;3.65;;;2.80;;
79526;SDS011;68974;47.754;-3.364;2023-04-06T01:19:09;5.55;;;2.75;;
79526;SDS011;68974;47.754;-3.364;2023-04-06T01:21:37;6.25;;;3.50;;
79526;SDS011;68974;47.754;-3.364;2023-04-06T01:24:03;5.80;;;3.33;;
79526;SDS011;68974;47.754;-3.364;2023-04-06T01:26:29;4.72;;;3.22;;
79526;SDS011;68974;47.754;-3.364;2023-04-06T01:28:55;7.07;;;3.72;;
79526;SDS011;68974;47.754;-3.364;2023-04-06T01:31:21;3.88;;;3.20;;
79526;SDS011;68974;47.754;-3.364;2023-04-06T01:33:47;4.70;;;3.53;;
79526;SDS011;68974;47.754;-3.364;2023-04-06T01:36:13;5.55;;;3.58;;
79526;SDS011;68974;47.754;-3.364;2023-04-06T01:38:39;4.50;;;3.20;;
79526;SDS011;68974;47.754;-3.364;2023-04-06T01:41:04;4.30;;;3.35;;
79526;SDS011;68974;47.754;-3.364;2023-04-06T01:43:30;6.75;;;3.55;;
79526;SDS011;68974;47.754;-3.364;2023-04-06T01:45:55;4.35;;;3.45;;
79526;SDS011;68974;47.754;-3.364;2023-04-06T01:48:20;5.57;;;3.55;;
79526;SDS011;68974;47.754;-3.364;2023-04-06T01:50:47;4.85;;;3.30;;
79526;SDS011;68974;47.754;-3.364;2023-04-06T01:53:12;5.32;;;3.67;;
79526;SDS011;68974;47.754;-3.364;2023-04-06T01:55:38;5.30;;;4.30;;
79526;SDS011;68974;47.754;-3.364;2023-04-06T01:58:03;8.38;;;3.47;;
79526;SDS011;68974;47.754;-3.364;2023-04-06T02:00:29;4.22;;;3.83;;
79526;SDS011;68974;47.754;-3.364;2023-04-06T02:02:55;4.72;;;3.55;;
79526;SDS011;68974;47.754;-3.364;2023-04-06T02:05:20;10.88;;;4.03;;
79526;SDS011;68974;47.754;-3.364;2023-04-06T02:07:46;8.35;;;3.25;;
79526;SDS011;68974;47.754;-3.364;2023-04-06T02:10:12;5.13;;;3.65;;
79526;SDS011;68974;47.754;-3.364;2023-04-06T02:15:04;6.10;;;3.00;;
79526;SDS011;68974;47.754;-3.364;2023-04-06T02:17:30;4.90;;;3.25;;
79526;SDS011;68974;47.754;-3.364;2023-04-06T02:19:55;6.22;;;3.17;;
79526;SDS011;68974;47.754;-3.364;2023-04-06T02:22:21;6.15;;;3.22;;
79526;SDS011;68974;47.754;-3.364;2023-04-06T02:24:46;6.55;;;3.40;;
79526;SDS011;68974;47.754;-3.364;2023-04-06T02:27:11;7.40;;;3.22;;
79526;SDS011;68974;47.754;-3.364;2023-04-06T02:29:38;5.40;;;2.78;;
79526;SDS011;68974;47.754;-3.364;2023-04-06T02:32:04;7.68;;;3.08;;
79526;SDS011;68974;47.754;-3.364;2023-04-06T02:34:29;6.15;;;3.47;;
79526;SDS011;68974;47.754;-3.364;2023-04-06T02:36:55;3.28;;;2.97;;
79526;SDS011;68974;47.754;-3.364;2023-04-06T02:39:20;6.38;;;3.10;;
79526;SDS011;68974;47.754;-3.364;2023-04-06T02:41:46;7.00;;;2.75;;
79526;SDS011;68974;47.754;-3.364;2023-04-06T02:44:11;6.28;;;2.85;;
79526;SDS011;68974;47.754;-3.364;2023-04-06T02:46:36;7.03;;;3.05;;
79526;SDS011;68974;47.754;-3.364;2023-04-06T02:49:02;3.65;;;2.33;;
79526;SDS011;68974;47.754;-3.364;2023-04-06T02:51:27;4.65;;;3.08;;
79526;SDS011;68974;47.754;-3.364;2023-04-06T02:53:53;4.70;;;2.53;;
79526;SDS011;68974;47.754;-3.364;2023-04-06T02:56:18;5.65;;;3.30;;
79526;SDS011;68974;47.754;-3.364;2023-04-06T02:58:45;4.00;;;2.85;;
79526;SDS011;68974;47.754;-3.364;2023-04-06T03:01:11;4.68;;;2.50;;
79526;SDS011;68974;47.754;-3.364;2023-04-06T03:03:36;6.63;;;2.80;;
79526;SDS011;68974;47.754;-3.364;2023-04-06T03:06:02;5.25;;;2.58;;
79526;SDS011;68974;47.754;-3.364;2023-04-06T03:08:28;2.63;;;2.42;;
79526;SDS011;68974;47.754;-3.364;2023-04-06T03:10:53;5.13;;;2.72;;
79526;SDS011;68974;47.754;-3.364;2023-04-06T03:13:19;4.93;;;2.80;;
79526;SDS011;68974;47.754;-3.364;2023-04-06T03:15:45;3.20;;;2.50;;
79526;SDS011;68974;47.754;-3.364;2023-04-06T03:18:11;6.35;;;2.40;;
79526;SDS011;68974;47.754;-3.364;2023-04-06T03:20:36;5.72;;;2.50;;
79526;SDS011;68974;47.754;-3.364;2023-04-06T03:23:01;5.43;;;3.15;;
79526;SDS011;68974;47.754;-3.364;2023-04-06T03:25:27;5.40;;;2.35;;
79526;SDS011;68974;47.754;-3.364;2023-04-06T03:27:52;5.47;;;2.63;;
79526;SDS011;68974;47.754;-3.364;2023-04-06T03:30:17;7.13;;;2.67;;
79526;SDS011;68974;47.754;-3.364;2023-04-06T03:32:43;4.28;;;2.47;;
79526;SDS011;68974;47.754;-3.364;2023-04-06T03:35:09;4.57;;;2.30;;
79526;SDS011;68974;47.754;-3.364;2023-04-06T03:37:35;4.22;;;3.42;;
79526;SDS011;68974;47.754;-3.364;2023-04-06T03:40:01;4.18;;;2.33;;
79526;SDS011;68974;47.754;-3.364;2023-04-06T03:42:26;5.97;;;2.30;;
79526;SDS011;68974;47.754;-3.364;2023-04-06T03:44:52;3.83;;;2.75;;
79526;SDS011;68974;47.754;-3.364;2023-04-06T03:47:17;5.90;;;2.58;;
79526;SDS011;68974;47.754;-3.364;2023-04-06T03:49:43;5.35;;;3.28;;
79526;SDS011;68974;47.754;-3.364;2023-04-06T03:52:08;5.78;;;3.00;;
79526;SDS011;68974;47.754;-3.364;2023-04-06T03:54:34;10.20;;;3.63;;
79526;SDS011;68974;47.754;-3.364;2023-04-06T03:57:00;6.60;;;2.75;;
79526;SDS011;68974;47.754;-3.364;2023-04-06T03:59:25;8.05;;;3.53;;
79526;SDS011;68974;47.754;-3.364;2023-04-06T04:01:51;5.22;;;3.72;;
79526;SDS011;68974;47.754;-3.364;2023-04-06T04:04:16;7.07;;;4.18;;
79526;SDS011;68974;47.754;-3.364;2023-04-06T04:06:42;6.75;;;3.63;;
79526;SDS011;68974;47.754;-3.364;2023-04-06T04:09:07;5.20;;;4.10;;
79526;SDS011;68974;47.754;-3.364;2023-04-06T04:11:32;7.05;;;4.47;;
79526;SDS011;68974;47.754;-3.364;2023-04-06T04:13:58;7.95;;;4.28;;
79526;SDS011;68974;47.754;-3.364;2023-04-06T04:16:23;8.40;;;5.53;;
79526;SDS011;68974;47.754;-3.364;2023-04-06T04:18:48;7.30;;;5.50;;
79526;SDS011;68974;47.754;-3.364;2023-04-06T04:21:14;9.93;;;6.32;;
79526;SDS011;68974;47.754;-3.364;2023-04-06T04:23:42;11.45;;;6.72;;
79526;SDS011;68974;47.754;-3.364;2023-04-06T04:26:08;9.93;;;6.07;;
79526;SDS011;68974;47.754;-3.364;2023-04-06T04:28:33;8.77;;;6.13;;
79526;SDS011;68974;47.754;-3.364;2023-04-06T04:30:59;12.05;;;6.43;;
79526;SDS011;68974;47.754;-3.364;2023-04-06T04:33:24;13.07;;;6.13;;
79526;SDS011;68974;47.754;-3.364;2023-04-06T04:35:50;8.77;;;5.65;;
79526;SDS011;68974;47.754;-3.364;2023-04-06T04:38:15;11.43;;;5.20;;
79526;SDS011;68974;47.754;-3.364;2023-04-06T04:40:41;5.90;;;4.88;;
79526;SDS011;68974;47.754;-3.364;2023-04-06T04:43:06;10.40;;;4.95;;
79526;SDS011;68974;47.754;-3.364;2023-04-06T04:45:31;6.90;;;4.85;;
79526;SDS011;68974;47.754;-3.364;2023-04-06T04:47:57;13.82;;;4.32;;
79526;SDS011;68974;47.754;-3.364;2023-04-06T04:50:22;7.80;;;4.50;;
79526;SDS011;68974;47.754;-3.364;2023-04-06T04:52:48;6.88;;;4.13;;
79526;SDS011;68974;47.754;-3.364;2023-04-06T04:55:13;10.07;;;4.40;;
79526;SDS011;68974;47.754;-3.364;2023-04-06T04:57:38;8.48;;;4.43;;
79526;SDS011;68974;47.754;-3.364;2023-04-06T05:00:04;9.10;;;4.43;;
79526;SDS011;68974;47.754;-3.364;2023-04-06T05:02:30;11.18;;;4.47;;
79526;SDS011;68974;47.754;-3.364;2023-04-06T05:04:56;6.07;;;3.92;;
79526;SDS011;68974;47.754;-3.364;2023-04-06T05:07:21;7.53;;;4.50;;
79526;SDS011;68974;47.754;-3.364;2023-04-06T05:09:46;9.73;;;5.45;;
79526;SDS011;68974;47.754;-3.364;2023-04-06T05:12:12;9.10;;;5.28;;
79526;SDS011;68974;47.754;-3.364;2023-04-06T05:14:38;8.55;;;6.65;;
79526;SDS011;68974;47.754;-3.364;2023-04-06T05:17:03;9.25;;;6.45;;
79526;SDS011;68974;47.754;-3.364;2023-04-06T05:19:29;13.63;;;6.47;;
79526;SDS011;68974;47.754;-3.364;2023-04-06T05:21:55;8.32;;;7.28;;
79526;SDS011;68974;47.754;-3.364;2023-04-06T05:24:20;10.68;;;7.35;;
79526;SDS011;68974;47.754;-3.364;2023-04-06T05:26:46;11.07;;;6.45;;
79526;SDS011;68974;47.754;-3.364;2023-04-06T05:29:13;12.82;;;7.45;;
79526;SDS011;68974;47.754;-3.364;2023-04-06T05:31:38;14.68;;;8.95;;
79526;SDS011;68974;47.754;-3.364;2023-04-06T05:34:04;12.68;;;8.02;;
79526;SDS011;68974;47.754;-3.364;2023-04-06T05:36:29;13.43;;;8.35;;
79526;SDS011;68974;47.754;-3.364;2023-04-06T05:38:57;14.43;;;9.32;;
79526;SDS011;68974;47.754;-3.364;2023-04-06T05:41:23;13.88;;;8.80;;
79526;SDS011;68974;47.754;-3.364;2023-04-06T05:43:48;14.10;;;9.30;;
79526;SDS011;68974;47.754;-3.364;2023-04-06T05:46:14;18.10;;;10.38;;
79526;SDS011;68974;47.754;-3.364;2023-04-06T05:48:39;18.70;;;10.40;;
79526;SDS011;68974;47.754;-3.364;2023-04-06T05:51:05;15.80;;;10.20;;
79526;SDS011;68974;47.754;-3.364;2023-04-06T05:53:31;14.88;;;9.80;;
79526;SDS011;68974;47.754;-3.364;2023-04-06T05:56:00;22.95;;;12.63;;
79526;SDS011;68974;47.754;-3.364;2023-04-06T05:58:26;16.20;;;9.77;;
79526;SDS011;68974;47.754;-3.364;2023-04-06T06:00:55;14.15;;;7.75;;
79526;SDS011;68974;47.754;-3.364;2023-04-06T06:03:22;16.20;;;8.90;;
79526;SDS011;68974;47.754;-3.364;2023-04-06T06:05:47;15.93;;;7.88;;
79526;SDS011;68974;47.754;-3.364;2023-04-06T06:08:13;13.50;;;9.25;;
79526;SDS011;68974;47.754;-3.364;2023-04-06T06:10:38;18.42;;;9.63;;
79526;SDS011;68974;47.754;-3.364;2023-04-06T06:13:05;13.40;;;8.18;;
79526;SDS011;68974;47.754;-3.364;2023-04-06T06:15:30;12.90;;;8.65;;
79526;SDS011;68974;47.754;-3.364;2023-04-06T06:17:56;10.70;;;7.50;;
79526;SDS011;68974;47.754;-3.364;2023-04-06T06:20:21;12.73;;;7.32;;
79526;SDS011;68974;47.754;-3.364;2023-04-06T06:22:46;10.70;;;7.00;;
79526;SDS011;68974;47.754;-3.364;2023-04-06T06:25:12;10.00;;;7.07;;
79526;SDS011;68974;47.754;-3.364;2023-04-06T06:27:38;10.60;;;7.00;;
79526;SDS011;68974;47.754;-3.364;2023-04-06T06:30:03;11.68;;;6.47;;
79526;SDS011;68974;47.754;-3.364;2023-04-06T06:32:29;8.45;;;6.53;;
79526;SDS011;68974;47.754;-3.364;2023-04-06T06:34:55;12.88;;;7.03;;
79526;SDS011;68974;47.754;-3.364;2023-04-06T06:37:20;9.40;;;5.85;;
79526;SDS011;68974;47.754;-3.364;2023-04-06T06:39:46;8.85;;;6.00;;
79526;SDS011;68974;47.754;-3.364;2023-04-06T06:42:11;9.43;;;5.55;;
79526;SDS011;68974;47.754;-3.364;2023-04-06T06:44:36;11.90;;;5.75;;
79526;SDS011;68974;47.754;-3.364;2023-04-06T06:47:02;9.35;;;5.20;;
79526;SDS011;68974;47.754;-3.364;2023-04-06T06:49:27;9.32;;;5.72;;
79526;SDS011;68974;47.754;-3.364;2023-04-06T06:51:52;10.30;;;6.20;;
79526;SDS011;68974;47.754;-3.364;2023-04-06T06:54:18;12.05;;;6.25;;
79526;SDS011;68974;47.754;-3.364;2023-04-06T06:56:43;16.38;;;9.57;;
79526;SDS011;68974;47.754;-3.364;2023-04-06T06:59:09;10.40;;;6.53;;
79526;SDS011;68974;47.754;-3.364;2023-04-06T07:01:36;9.52;;;7.05;;
79526;SDS011;68974;47.754;-3.364;2023-04-06T07:06:27;13.93;;;8.20;;
79526;SDS011;68974;47.754;-3.364;2023-04-06T07:08:52;15.13;;;6.85;;
79526;SDS011;68974;47.754;-3.364;2023-04-06T07:11:18;13.68;;;7.78;;
79526;SDS011;68974;47.754;-3.364;2023-04-06T07:13:43;7.53;;;5.30;;
79526;SDS011;68974;47.754;-3.364;2023-04-06T07:16:08;11.23;;;6.63;;
79526;SDS011;68974;47.754;-3.364;2023-04-06T07:18:34;10.55;;;5.68;;
79526;SDS011;68974;47.754;-3.364;2023-04-06T07:20:59;9.05;;;5.38;;
79526;SDS011;68974;47.754;-3.364;2023-04-06T07:23:25;8.00;;;5.88;;
79526;SDS011;68974;47.754;-3.364;2023-04-06T07:25:50;6.68;;;5.22;;
79526;SDS011;68974;47.754;-3.364;2023-04-06T07:28:17;10.73;;;4.43;;
79526;SDS011;68974;47.754;-3.364;2023-04-06T07:30:42;7.32;;;3.88;;
79526;SDS011;68974;47.754;-3.364;2023-04-06T07:33:08;8.85;;;4.10;;
79526;SDS011;68974;47.754;-3.364;2023-04-06T07:35:33;5.93;;;4.13;;
79526;SDS011;68974;47.754;-3.364;2023-04-06T07:38:00;11.82;;;4.95;;
79526;SDS011;68974;47.754;-3.364;2023-04-06T07:40:25;13.55;;;5.18;;
79526;SDS011;68974;47.754;-3.364;2023-04-06T07:42:51;7.63;;;4.65;;
79526;SDS011;68974;47.754;-3.364;2023-04-06T07:45:17;11.77;;;6.05;;
79526;SDS011;68974;47.754;-3.364;2023-04-06T07:47:43;21.13;;;10.35;;
79526;SDS011;68974;47.754;-3.364;2023-04-06T07:50:08;20.38;;;12.80;;
79526;SDS011;68974;47.754;-3.364;2023-04-06T07:52:35;12.15;;;8.18;;
79526;SDS011;68974;47.754;-3.364;2023-04-06T07:55:00;13.20;;;7.15;;
79526;SDS011;68974;47.754;-3.364;2023-04-06T07:57:26;12.88;;;6.88;;
79526;SDS011;68974;47.754;-3.364;2023-04-06T07:59:51;16.42;;;6.72;;
79526;SDS011;68974;47.754;-3.364;2023-04-06T08:02:17;14.18;;;6.75;;
79526;SDS011;68974;47.754;-3.364;2023-04-06T08:04:43;11.05;;;5.47;;
79526;SDS011;68974;47.754;-3.364;2023-04-06T08:07:09;13.30;;;5.95;;
79526;SDS011;68974;47.754;-3.364;2023-04-06T08:09:34;14.77;;;4.80;;
79526;SDS011;68974;47.754;-3.364;2023-04-06T08:12:00;10.10;;;4.75;;
79526;SDS011;68974;47.754;-3.364;2023-04-06T08:14:25;10.77;;;4.85;;
79526;SDS011;68974;47.754;-3.364;2023-04-06T08:16:51;7.60;;;4.25;;
79526;SDS011;68974;47.754;-3.364;2023-04-06T08:19:16;11.02;;;5.88;;
79526;SDS011;68974;47.754;-3.364;2023-04-06T08:21:43;9.95;;;5.25;;
79526;SDS011;68974;47.754;-3.364;2023-04-06T08:24:10;10.15;;;5.93;;
79526;SDS011;68974;47.754;-3.364;2023-04-06T08:26:35;9.68;;;5.22;;
79526;SDS011;68974;47.754;-3.364;2023-04-06T08:29:00;14.02;;;6.20;;
79526;SDS011;68974;47.754;-3.364;2023-04-06T08:31:26;13.13;;;6.53;;
79526;SDS011;68974;47.754;-3.364;2023-04-06T08:33:52;11.95;;;5.30;;
79526;SDS011;68974;47.754;-3.364;2023-04-06T08:36:18;15.73;;;6.03;;
79526;SDS011;68974;47.754;-3.364;2023-04-06T08:38:47;11.18;;;5.22;;
79526;SDS011;68974;47.754;-3.364;2023-04-06T08:41:14;16.85;;;5.32;;
79526;SDS011;68974;47.754;-3.364;2023-04-06T08:43:48;14.82;;;5.20;;
79526;SDS011;68974;47.754;-3.364;2023-04-06T08:46:15;9.95;;;4.38;;
79526;SDS011;68974;47.754;-3.364;2023-04-06T08:48:41;8.93;;;3.10;;
79526;SDS011;68974;47.754;-3.364;2023-04-06T08:51:08;5.10;;;2.78;;
79526;SDS011;68974;47.754;-3.364;2023-04-06T08:53:34;7.88;;;3.33;;
79526;SDS011;68974;47.754;-3.364;2023-04-06T08:55:59;5.40;;;2.58;;
79526;SDS011;68974;47.754;-3.364;2023-04-06T08:58:27;6.65;;;2.88;;
79526;SDS011;68974;47.754;-3.364;2023-04-06T09:00:55;6.55;;;2.63;;
79526;SDS011;68974;47.754;-3.364;2023-04-06T09:03:21;7.78;;;3.13;;
79526;SDS011;68974;47.754;-3.364;2023-04-06T09:05:48;4.65;;;2.65;;
79526;SDS011;68974;47.754;-3.364;2023-04-06T09:08:15;3.55;;;2.65;;
79526;SDS011;68974;47.754;-3.364;2023-04-06T09:10:40;7.45;;;3.22;;
79526;SDS011;68974;47.754;-3.364;2023-04-06T09:13:06;7.65;;;4.03;;
79526;SDS011;68974;47.754;-3.364;2023-04-06T09:15:32;8.02;;;2.63;;
79526;SDS011;68974;47.754;-3.364;2023-04-06T09:17:58;8.95;;;3.08;;
79526;SDS011;68974;47.754;-3.364;2023-04-06T09:20:24;9.23;;;3.05;;
79526;SDS011;68974;47.754;-3.364;2023-04-06T09:22:56;5.07;;;2.83;;
79526;SDS011;68974;47.754;-3.364;2023-04-06T09:25:22;7.15;;;3.22;;
79526;SDS011;68974;47.754;-3.364;2023-04-06T09:27:58;13.30;;;4.00;;
79526;SDS011;68974;47.754;-3.364;2023-04-06T09:30:25;4.95;;;2.92;;
79526;SDS011;68974;47.754;-3.364;2023-04-06T09:32:52;6.65;;;3.00;;
79526;SDS011;68974;47.754;-3.364;2023-04-06T09:35:22;8.82;;;3.28;;
79526;SDS011;68974;47.754;-3.364;2023-04-06T09:37:49;5.47;;;3.22;;
79526;SDS011;68974;47.754;-3.364;2023-04-06T09:40:16;6.85;;;3.58;;
79526;SDS011;68974;47.754;-3.364;2023-04-06T09:42:46;10.75;;;3.85;;
79526;SDS011;68974;47.754;-3.364;2023-04-06T09:45:15;6.57;;;3.38;;
79526;SDS011;68974;47.754;-3.364;2023-04-06T09:47:42;8.65;;;3.53;;
79526;SDS011;68974;47.754;-3.364;2023-04-06T09:50:10;8.70;;;3.35;;
79526;SDS011;68974;47.754;-3.364;2023-04-06T09:52:38;8.65;;;3.30;;
79526;SDS011;68974;47.754;-3.364;2023-04-06T09:55:07;11.57;;;3.15;;
79526;SDS011;68974;47.754;-3.364;2023-04-06T10:00:08;5.53;;;2.80;;
79526;SDS011;68974;47.754;-3.364;2023-04-06T10:02:48;3.95;;;1.30;;
79526;SDS011;68974;47.754;-3.364;2023-04-06T10:05:54;2.30;;;0.73;;
79526;SDS011;68974;47.754;-3.364;2023-04-06T10:08:24;0.73;;;0.32;;
79526;SDS011;68974;47.754;-3.364;2023-04-06T10:10:52;2.70;;;0.50;;
79526;SDS011;68974;47.754;-3.364;2023-04-06T10:13:18;3.53;;;1.13;;
79526;SDS011;68974;47.754;-3.364;2023-04-06T10:15:44;0.75;;;0.60;;
79526;SDS011;68974;47.754;-3.364;2023-04-06T10:18:10;3.08;;;0.70;;
79526;SDS011;68974;47.754;-3.364;2023-04-06T10:23:06;1.13;;;0.52;;
79526;SDS011;68974;47.754;-3.364;2023-04-06T10:25:39;2.22;;;0.65;;
79526;SDS011;68974;47.754;-3.364;2023-04-06T10:28:05;0.93;;;0.50;;
79526;SDS011;68974;47.754;-3.364;2023-04-06T10:30:32;1.48;;;0.40;;
79526;SDS011;68974;47.754;-3.364;2023-04-06T10:32:58;3.80;;;0.50;;
79526;SDS011;68974;47.754;-3.364;2023-04-06T10:35:24;2.70;;;0.70;;
79526;SDS011;68974;47.754;-3.364;2023-04-06T10:38:03;1.80;;;0.40;;
79526;SDS011;68974;47.754;-3.364;2023-04-06T10:40:29;1.73;;;0.60;;
79526;SDS011;68974;47.754;-3.364;2023-04-06T10:43:06;3.15;;;0.60;;
79526;SDS011;68974;47.754;-3.364;2023-04-06T10:45:35;3.22;;;0.60;;
79526;SDS011;68974;47.754;-3.364;2023-04-06T10:48:01;2.75;;;0.75;;
79526;SDS011;68974;47.754;-3.364;2023-04-06T10:50:44;2.42;;;0.70;;
79526;SDS011;68974;47.754;-3.364;2023-04-06T10:53:11;2.65;;;0.65;;
79526;SDS011;68974;47.754;-3.364;2023-04-06T10:55:38;1.50;;;0.52;;
79526;SDS011;68974;47.754;-3.364;2023-04-06T10:58:06;1.48;;;0.55;;
79526;SDS011;68974;47.754;-3.364;2023-04-06T11:00:32;2.08;;;0.60;;
79526;SDS011;68974;47.754;-3.364;2023-04-06T11:03:01;0.82;;;0.50;;
79526;SDS011;68974;47.754;-3.364;2023-04-06T11:05:27;4.47;;;0.85;;
79526;SDS011;68974;47.754;-3.364;2023-04-06T11:07:52;2.80;;;0.60;;
79526;SDS011;68974;47.754;-3.364;2023-04-06T11:10:21;3.65;;;0.73;;
79526;SDS011;68974;47.754;-3.364;2023-04-06T11:12:52;4.30;;;0.80;;
79526;SDS011;68974;47.754;-3.364;2023-04-06T11:15:18;2.53;;;0.80;;
79526;SDS011;68974;47.754;-3.364;2023-04-06T11:17:44;0.93;;;0.50;;
79526;SDS011;68974;47.754;-3.364;2023-04-06T11:20:11;2.55;;;0.68;;
79526;SDS011;68974;47.754;-3.364;2023-04-06T11:22:47;3.67;;;0.70;;
79526;SDS011;68974;47.754;-3.364;2023-04-06T11:25:14;1.70;;;0.70;;
79526;SDS011;68974;47.754;-3.364;2023-04-06T11:27:41;2.92;;;0.70;;
79526;SDS011;68974;47.754;-3.364;2023-04-06T11:30:07;2.55;;;0.68;;
79526;SDS011;68974;47.754;-3.364;2023-04-06T11:32:40;3.35;;;0.80;;
79526;SDS011;68974;47.754;-3.364;2023-04-06T11:35:27;1.27;;;0.60;;
79526;SDS011;68974;47.754;-3.364;2023-04-06T11:37:56;1.73;;;0.77;;
79526;SDS011;68974;47.754;-3.364;2023-04-06T11:40:22;1.48;;;0.60;;
79526;SDS011;68974;47.754;-3.364;2023-04-06T11:42:51;2.20;;;0.80;;
79526;SDS011;68974;47.754;-3.364;2023-04-06T11:45:18;3.00;;;1.00;;
79526;SDS011;68974;47.754;-3.364;2023-04-06T11:47:44;1.42;;;0.80;;
79526;SDS011;68974;47.754;-3.364;2023-04-06T11:50:10;2.50;;;1.00;;
79526;SDS011;68974;47.754;-3.364;2023-04-06T11:52:37;3.10;;;1.00;;
79526;SDS011;68974;47.754;-3.364;2023-04-06T11:55:11;2.92;;;0.77;;
79526;SDS011;68974;47.754;-3.364;2023-04-06T11:57:39;1.98;;;0.90;;
79526;SDS011;68974;47.754;-3.364;2023-04-06T12:00:05;3.35;;;0.90;;
79526;SDS011;68974;47.754;-3.364;2023-04-06T12:02:31;2.05;;;0.73;;
79526;SDS011;68974;47.754;-3.364;2023-04-06T12:04:57;3.40;;;1.00;;
79526;SDS011;68974;47.754;-3.364;2023-04-06T12:07:23;1.92;;;1.25;;
79526;SDS011;68974;47.754;-3.364;2023-04-06T12:09:48;2.72;;;1.02;;
79526;SDS011;68974;47.754;-3.364;2023-04-06T12:12:13;2.10;;;1.05;;
79526;SDS011;68974;47.754;-3.364;2023-04-06T12:14:39;2.00;;;0.70;;
79526;SDS011;68974;47.754;-3.364;2023-04-06T12:17:04;1.63;;;0.55;;
79526;SDS011;68974;47.754;-3.364;2023-04-06T12:19:30;3.03;;;1.13;;
79526;SDS011;68974;47.754;-3.364;2023-04-06T12:21:56;2.92;;;0.80;;
79526;SDS011;68974;47.754;-3.364;2023-04-06T12:24:22;2.30;;;1.00;;
79526;SDS011;68974;47.754;-3.364;2023-04-06T12:26:48;1.35;;;0.57;;
79526;SDS011;68974;47.754;-3.364;2023-04-06T12:29:13;4.20;;;0.93;;
79526;SDS011;68974;47.754;-3.364;2023-04-06T12:31:40;3.80;;;0.70;;
79526;SDS011;68974;47.754;-3.364;2023-04-06T12:34:09;2.35;;;0.68;;
79526;SDS011;68974;47.754;-3.364;2023-04-06T12:36:36;1.50;;;0.55;;
79526;SDS011;68974;47.754;-3.364;2023-04-06T12:39:02;2.03;;;0.60;;
79526;SDS011;68974;47.754;-3.364;2023-04-06T12:41:27;3.63;;;1.02;;
79526;SDS011;68974;47.754;-3.364;2023-04-06T12:43:54;2.50;;;0.70;;
79526;SDS011;68974;47.754;-3.364;2023-04-06T12:46:19;4.65;;;0.90;;
79526;SDS011;68974;47.754;-3.364;2023-04-06T12:48:45;6.13;;;0.80;;
79526;SDS011;68974;47.754;-3.364;2023-04-06T12:51:11;4.00;;;0.70;;
79526;SDS011;68974;47.754;-3.364;2023-04-06T12:53:36;2.40;;;1.05;;
79526;SDS011;68974;47.754;-3.364;2023-04-06T12:56:02;3.33;;;0.75;;
79526;SDS011;68974;47.754;-3.364;2023-04-06T12:58:36;5.97;;;0.90;;
79526;SDS011;68974;47.754;-3.364;2023-04-06T13:01:05;4.20;;;0.90;;
79526;SDS011;68974;47.754;-3.364;2023-04-06T13:03:31;4.68;;;1.30;;
79526;SDS011;68974;47.754;-3.364;2023-04-06T13:05:58;7.90;;;1.20;;
79526;SDS011;68974;47.754;-3.364;2023-04-06T13:08:25;4.25;;;0.82;;
79526;SDS011;68974;47.754;-3.364;2023-04-06T13:10:51;6.00;;;1.10;;
79526;SDS011;68974;47.754;-3.364;2023-04-06T13:13:17;4.32;;;1.20;;
79526;SDS011;68974;47.754;-3.364;2023-04-06T13:15:47;3.45;;;0.90;;
79526;SDS011;68974;47.754;-3.364;2023-04-06T13:18:12;6.55;;;1.67;;
79526;SDS011;68974;47.754;-3.364;2023-04-06T13:20:38;5.45;;;1.50;;
79526;SDS011;68974;47.754;-3.364;2023-04-06T13:23:03;2.88;;;0.90;;
79526;SDS011;68974;47.754;-3.364;2023-04-06T13:25:29;4.82;;;0.98;;
79526;SDS011;68974;47.754;-3.364;2023-04-06T13:27:55;4.03;;;1.20;;
79526;SDS011;68974;47.754;-3.364;2023-04-06T13:30:20;3.95;;;1.20;;
79526;SDS011;68974;47.754;-3.364;2023-04-06T13:32:46;3.35;;;0.80;;
79526;SDS011;68974;47.754;-3.364;2023-04-06T13:35:11;2.45;;;1.13;;
79526;SDS011;68974;47.754;-3.364;2023-04-06T13:37:37;2.05;;;0.80;;
79526;SDS011;68974;47.754;-3.364;2023-04-06T13:40:02;4.38;;;1.30;;
79526;SDS011;68974;47.754;-3.364;2023-04-06T13:44:55;3.05;;;0.90;;
79526;SDS011;68974;47.754;-3.364;2023-04-06T13:47:20;4.00;;;1.10;;
79526;SDS011;68974;47.754;-3.364;2023-04-06T13:49:46;4.07;;;0.98;;
79526;SDS011;68974;47.754;-3.364;2023-04-06T13:52:12;6.53;;;1.10;;
79526;SDS011;68974;47.754;-3.364;2023-04-06T13:54:37;5.95;;;1.23;;
79526;SDS011;68974;47.754;-3.364;2023-04-06T13:57:03;4.85;;;1.13;;
79526;SDS011;68974;47.754;-3.364;2023-04-06T13:59:33;4.82;;;1.30;;
79526;SDS011;68974;47.754;-3.364;2023-04-06T14:01:59;6.80;;;1.42;;
79526;SDS011;68974;47.754;-3.364;2023-04-06T14:04:25;5.00;;;1.40;;
79526;SDS011;68974;47.754;-3.364;2023-04-06T14:06:50;5.68;;;1.40;;
79526;SDS011;68974;47.754;-3.364;2023-04-06T14:09:15;4.93;;;1.27;;
79526;SDS011;68974;47.754;-3.364;2023-04-06T14:11:41;6.57;;;1.13;;
79526;SDS011;68974;47.754;-3.364;2023-04-06T14:14:06;4.13;;;1.10;;
79526;SDS011;68974;47.754;-3.364;2023-04-06T14:16:32;4.03;;;1.00;;
79526;SDS011;68974;47.754;-3.364;2023-04-06T14:18:57;5.85;;;1.10;;
79526;SDS011;68974;47.754;-3.364;2023-04-06T14:21:23;5.45;;;1.10;;
79526;SDS011;68974;47.754;-3.364;2023-04-06T14:23:49;6.72;;;1.13;;
79526;SDS011;68974;47.754;-3.364;2023-04-06T14:26:14;7.82;;;1.38;;
79526;SDS011;68974;47.754;-3.364;2023-04-06T14:28:41;6.90;;;1.25;;
79526;SDS011;68974;47.754;-3.364;2023-04-06T14:31:10;6.78;;;1.60;;
79526;SDS011;68974;47.754;-3.364;2023-04-06T14:33:36;7.20;;;1.23;;
79526;SDS011;68974;47.754;-3.364;2023-04-06T14:36:02;5.55;;;1.40;;
79526;SDS011;68974;47.754;-3.364;2023-04-06T14:38:30;8.90;;;1.58;;